createdAt,value
2018-09-13T00:00:02.993Z,21.21
2018-09-13T00:01:02.859Z,21.21
2018-09-13T00:02:02.796Z,21.21
2018-09-13T00:03:02.470Z,21.21
2018-09-13T00:04:02.920Z,21.21
2018-09-13T00:05:02.454Z,21.21
2018-09-13T00:06:02.645Z,21.21
2018-09-13T00:07:02.831Z,21.21
2018-09-13T00:08:02.809Z,21.21
2018-09-13T00:09:02.825Z,21.21
2018-09-13T00:10:02.932Z,21.21
2018-09-13T00:11:02.800Z,21.21
2018-09-13T00:12:02.666Z,21.21
2018-09-13T00:13:02.559Z,21.21
2018-09-13T00:14:03.028Z,21.2
2018-09-13T00:15:02.577Z,21.2
2018-09-13T00:16:02.823Z,21.2
2018-09-13T00:17:02.553Z,21.2
2018-09-13T00:18:02.806Z,21.2
2018-09-13T00:19:03.151Z,21.2
2018-09-13T00:20:02.604Z,21.2
2018-09-13T00:21:02.862Z,21.2
2018-09-13T00:22:02.985Z,21.2
2018-09-13T00:23:02.960Z,21.2
2018-09-13T00:24:02.822Z,21.2
2018-09-13T00:25:02.551Z,21.2
2018-09-13T00:26:02.662Z,21.2
2018-09-13T00:27:02.523Z,21.19
2018-09-13T00:28:03.061Z,21.2
2018-09-13T00:29:02.680Z,21.2
2018-09-13T00:30:02.861Z,21.19
2018-09-13T00:31:02.688Z,21.2
2018-09-13T00:32:02.664Z,21.2
2018-09-13T00:33:02.633Z,21.19
2018-09-13T00:34:02.874Z,21.19
2018-09-13T00:35:02.559Z,21.19
2018-09-13T00:36:02.630Z,21.19
2018-09-13T00:37:02.888Z,21.19
2018-09-13T00:38:02.823Z,21.19
2018-09-13T00:39:02.814Z,21.19
2018-09-13T00:40:02.553Z,21.19
2018-09-13T00:41:02.543Z,21.19
2018-09-13T00:42:02.681Z,21.19
2018-09-13T00:43:02.890Z,21.19
2018-09-13T00:44:02.713Z,21.19
2018-09-13T00:45:03.100Z,21.19
2018-09-13T00:46:02.859Z,21.19
2018-09-13T00:47:02.483Z,21.18
2018-09-13T00:48:02.631Z,21.19
2018-09-13T00:49:02.823Z,21.18
2018-09-13T00:50:02.604Z,21.19
2018-09-13T00:51:02.854Z,21.19
2018-09-13T00:52:02.715Z,21.19
2018-09-13T00:53:02.775Z,21.19
2018-09-13T00:54:02.599Z,21.18
2018-09-13T00:55:02.641Z,21.18
2018-09-13T00:56:02.722Z,21.19
2018-09-13T00:57:02.854Z,21.18
2018-09-13T00:58:02.665Z,21.18
2018-09-13T00:59:03.348Z,21.19
2018-09-13T01:00:02.821Z,21.19
2018-09-13T01:01:02.476Z,21.18
2018-09-13T01:02:02.567Z,21.19
2018-09-13T01:03:02.483Z,21.18
2018-09-13T01:04:02.497Z,21.18
2018-09-13T01:05:02.652Z,21.18
2018-09-13T01:06:02.650Z,21.18
2018-09-13T01:07:02.567Z,21.18
2018-09-13T01:08:02.632Z,21.18
2018-09-13T01:09:02.836Z,21.18
2018-09-13T01:10:02.539Z,21.18
2018-09-13T01:11:02.557Z,21.18
2018-09-13T01:12:02.687Z,21.18
2018-09-13T01:13:02.735Z,21.18
2018-09-13T01:14:02.433Z,21.18
2018-09-13T01:15:02.674Z,21.18
2018-09-13T01:16:02.688Z,21.18
2018-09-13T01:17:03.428Z,21.18
2018-09-13T01:18:02.615Z,21.18
2018-09-13T01:19:02.600Z,21.18
2018-09-13T01:20:02.829Z,21.18
2018-09-13T01:21:02.620Z,21.18
2018-09-13T01:22:02.577Z,21.18
2018-09-13T01:23:02.806Z,21.18
2018-09-13T01:24:02.765Z,21.18
2018-09-13T01:25:02.518Z,21.18
2018-09-13T01:26:02.937Z,21.18
2018-09-13T01:27:02.505Z,21.18
2018-09-13T01:28:02.600Z,21.18
2018-09-13T01:29:02.742Z,21.18
2018-09-13T01:30:02.811Z,21.18
2018-09-13T01:31:02.570Z,21.18
2018-09-13T01:32:02.603Z,21.18
2018-09-13T01:33:02.727Z,21.18
2018-09-13T01:34:02.639Z,21.18
2018-09-13T01:35:02.804Z,21.18
2018-09-13T01:36:02.549Z,21.18
2018-09-13T01:37:02.588Z,21.18
2018-09-13T01:38:02.813Z,21.18
2018-09-13T01:39:03.064Z,21.17
2018-09-13T01:40:02.911Z,21.18
2018-09-13T01:41:02.925Z,21.18
2018-09-13T01:42:02.839Z,21.18
2018-09-13T01:43:02.710Z,21.18
2018-09-13T01:44:02.569Z,21.18
2018-09-13T01:45:02.879Z,21.17
2018-09-13T01:46:02.762Z,21.18
2018-09-13T01:47:02.793Z,21.17
2018-09-13T01:48:02.920Z,21.17
2018-09-13T01:49:02.395Z,21.18
2018-09-13T01:50:02.865Z,21.17
2018-09-13T01:51:02.611Z,21.18
2018-09-13T01:52:02.545Z,21.18
2018-09-13T01:53:02.588Z,21.17
2018-09-13T01:54:02.495Z,21.17
2018-09-13T01:55:02.836Z,21.18
2018-09-13T01:56:02.567Z,21.17
2018-09-13T01:57:02.851Z,21.17
2018-09-13T01:58:02.862Z,21.17
2018-09-13T01:59:02.804Z,21.17
2018-09-13T02:00:02.507Z,21.17
2018-09-13T02:01:02.953Z,21.17
2018-09-13T02:02:02.916Z,21.17
2018-09-13T02:03:02.975Z,21.17
2018-09-13T02:04:02.778Z,21.17
2018-09-13T02:05:02.680Z,21.17
2018-09-13T02:06:02.562Z,21.17
2018-09-13T02:07:02.882Z,21.17
2018-09-13T02:08:02.436Z,21.17
2018-09-13T02:09:02.832Z,21.17
2018-09-13T02:10:02.827Z,21.17
2018-09-13T02:11:02.622Z,21.17
2018-09-13T02:12:02.570Z,21.16
2018-09-13T02:13:02.851Z,21.17
2018-09-13T02:14:02.522Z,21.17
2018-09-13T02:15:02.823Z,21.16
2018-09-13T02:16:02.869Z,21.17
2018-09-13T02:17:02.765Z,21.17
2018-09-13T02:18:02.872Z,21.16
2018-09-13T02:19:02.605Z,21.16
2018-09-13T02:20:02.561Z,21.16
2018-09-13T02:21:02.563Z,21.16
2018-09-13T02:22:02.508Z,21.17
2018-09-13T02:23:02.703Z,21.17
2018-09-13T02:24:02.796Z,21.16
2018-09-13T02:25:02.686Z,21.16
2018-09-13T02:26:02.935Z,21.17
2018-09-13T02:27:02.686Z,21.16
2018-09-13T02:28:02.466Z,21.16
2018-09-13T02:29:02.651Z,21.16
2018-09-13T02:30:02.532Z,21.16
2018-09-13T02:31:02.629Z,21.16
2018-09-13T02:32:02.733Z,21.16
2018-09-13T02:33:02.543Z,21.16
2018-09-13T02:34:02.616Z,21.16
2018-09-13T02:35:02.925Z,21.16
2018-09-13T02:36:02.798Z,21.16
2018-09-13T02:37:02.846Z,21.16
2018-09-13T02:38:02.739Z,21.16
2018-09-13T02:39:02.717Z,21.16
2018-09-13T02:40:02.607Z,21.16
2018-09-13T02:41:02.673Z,21.16
2018-09-13T02:42:02.716Z,21.15
2018-09-13T02:43:02.539Z,21.16
2018-09-13T02:44:02.746Z,21.16
2018-09-13T02:45:02.793Z,21.16
2018-09-13T02:46:02.609Z,21.16
2018-09-13T02:47:02.643Z,21.15
2018-09-13T02:48:03.088Z,21.16
2018-09-13T02:49:03.103Z,21.15
2018-09-13T02:50:02.881Z,21.16
2018-09-13T02:51:02.708Z,21.15
2018-09-13T02:52:02.928Z,21.16
2018-09-13T02:53:02.649Z,21.15
2018-09-13T02:54:02.547Z,21.15
2018-09-13T02:55:02.522Z,21.15
2018-09-13T02:56:02.635Z,21.15
2018-09-13T02:57:02.860Z,21.15
2018-09-13T02:58:02.790Z,21.15
2018-09-13T02:59:02.839Z,21.15
2018-09-13T03:00:02.750Z,21.15
2018-09-13T03:01:02.823Z,21.15
2018-09-13T03:02:02.894Z,21.15
2018-09-13T03:03:02.538Z,21.15
2018-09-13T03:04:02.625Z,21.15
2018-09-13T03:05:02.920Z,21.15
2018-09-13T03:06:02.833Z,21.15
2018-09-13T03:07:02.551Z,21.15
2018-09-13T03:08:02.593Z,21.15
2018-09-13T03:09:03.009Z,21.15
2018-09-13T03:10:02.783Z,21.15
2018-09-13T03:11:02.784Z,21.15
2018-09-13T03:12:02.775Z,21.15
2018-09-13T03:13:02.742Z,21.15
2018-09-13T03:14:02.503Z,21.15
2018-09-13T03:15:02.593Z,21.15
2018-09-13T03:16:02.801Z,21.15
2018-09-13T03:17:02.757Z,21.15
2018-09-13T03:18:02.847Z,21.15
2018-09-13T03:19:02.844Z,21.14
2018-09-13T03:20:02.687Z,21.15
2018-09-13T03:21:02.793Z,21.15
2018-09-13T03:22:02.721Z,21.15
2018-09-13T03:23:02.673Z,21.15
2018-09-13T03:24:02.842Z,21.15
2018-09-13T03:25:02.832Z,21.15
2018-09-13T03:26:02.567Z,21.15
2018-09-13T03:27:02.820Z,21.15
2018-09-13T03:28:02.668Z,21.14
2018-09-13T03:29:02.778Z,21.14
2018-09-13T03:30:02.621Z,21.14
2018-09-13T03:31:03.012Z,21.15
2018-09-13T03:32:02.707Z,21.15
2018-09-13T03:33:02.521Z,21.14
2018-09-13T03:34:02.672Z,21.14
2018-09-13T03:35:02.796Z,21.14
2018-09-13T03:36:03.033Z,21.14
2018-09-13T03:37:02.878Z,21.14
2018-09-13T03:38:02.499Z,21.14
2018-09-13T03:39:02.698Z,21.14
2018-09-13T03:40:03.068Z,21.14
2018-09-13T03:41:02.845Z,21.14
2018-09-13T03:42:03.541Z,21.14
2018-09-13T03:43:02.574Z,21.15
2018-09-13T03:44:02.488Z,21.14
2018-09-13T03:45:02.688Z,21.14
2018-09-13T03:46:02.594Z,21.14
2018-09-13T03:47:02.519Z,21.14
2018-09-13T03:48:02.560Z,21.14
2018-09-13T03:49:02.447Z,21.14
2018-09-13T03:50:02.521Z,21.14
2018-09-13T03:51:02.617Z,21.13
2018-09-13T03:52:02.450Z,21.14
2018-09-13T03:53:02.461Z,21.14
2018-09-13T03:54:02.450Z,21.14
2018-09-13T03:55:02.452Z,21.14
2018-09-13T03:56:02.579Z,21.14
2018-09-13T03:57:02.482Z,21.14
2018-09-13T03:58:02.769Z,21.14
2018-09-13T03:59:02.498Z,21.14
2018-09-13T04:00:02.522Z,21.14
2018-09-13T04:01:02.657Z,21.14
2018-09-13T04:02:02.760Z,21.14
2018-09-13T04:03:02.685Z,21.13
2018-09-13T04:04:03.080Z,21.13
2018-09-13T04:05:02.693Z,21.14
2018-09-13T04:06:02.675Z,21.13
2018-09-13T04:07:02.744Z,21.14
2018-09-13T04:08:02.972Z,21.14
2018-09-13T04:09:03.201Z,21.14
2018-09-13T04:10:02.853Z,21.14
2018-09-13T04:11:02.592Z,21.13
2018-09-13T04:12:02.607Z,21.13
2018-09-13T04:13:02.657Z,21.13
2018-09-13T04:14:02.951Z,21.14
2018-09-13T04:15:02.715Z,21.13
2018-09-13T04:16:02.536Z,21.13
2018-09-13T04:17:02.408Z,21.13
2018-09-13T04:18:02.563Z,21.14
2018-09-13T04:19:02.941Z,21.13
2018-09-13T04:20:02.683Z,21.13
2018-09-13T04:21:02.686Z,21.13
2018-09-13T04:22:02.814Z,21.13
2018-09-13T04:23:02.801Z,21.13
2018-09-13T04:24:02.561Z,21.13
2018-09-13T04:25:02.835Z,21.13
2018-09-13T04:26:02.600Z,21.14
2018-09-13T04:27:02.588Z,21.13
2018-09-13T04:28:02.987Z,21.13
2018-09-13T04:29:02.614Z,21.13
2018-09-13T04:30:02.638Z,21.13
2018-09-13T04:31:02.766Z,21.13
2018-09-13T04:32:02.770Z,21.13
2018-09-13T04:33:02.915Z,21.13
2018-09-13T04:34:02.887Z,21.13
2018-09-13T04:35:02.723Z,21.14
2018-09-13T04:36:03.209Z,21.13
2018-09-13T04:37:02.810Z,21.13
2018-09-13T04:38:02.399Z,21.13
2018-09-13T04:39:02.614Z,21.13
2018-09-13T04:40:02.903Z,21.13
2018-09-13T04:41:02.824Z,21.13
2018-09-13T04:42:02.814Z,21.13
2018-09-13T04:43:02.751Z,21.13
2018-09-13T04:44:02.456Z,21.13
2018-09-13T04:45:03.067Z,21.13
2018-09-13T04:46:02.609Z,21.13
2018-09-13T04:47:02.730Z,21.13
2018-09-13T04:48:02.389Z,21.13
2018-09-13T04:49:02.713Z,21.13
2018-09-13T04:50:02.670Z,21.13
2018-09-13T04:51:02.695Z,21.13
2018-09-13T04:52:02.955Z,21.13
2018-09-13T04:53:02.753Z,21.13
2018-09-13T04:54:03.134Z,21.13
2018-09-13T04:55:02.778Z,21.13
2018-09-13T04:56:02.512Z,21.13
2018-09-13T04:57:02.845Z,21.13
2018-09-13T04:58:02.629Z,21.13
2018-09-13T04:59:02.731Z,21.13
2018-09-13T05:00:02.802Z,21.13
2018-09-13T05:01:02.565Z,21.13
2018-09-13T05:02:02.461Z,21.13
2018-09-13T05:03:02.712Z,21.13
2018-09-13T05:04:02.761Z,21.13
2018-09-13T05:05:02.761Z,21.13
2018-09-13T05:06:02.789Z,21.13
2018-09-13T05:07:02.455Z,21.13
2018-09-13T05:08:02.765Z,21.13
2018-09-13T05:09:02.571Z,21.13
2018-09-13T05:10:03.255Z,21.13
2018-09-13T05:11:02.475Z,21.13
2018-09-13T05:12:02.711Z,21.13
2018-09-13T05:13:02.865Z,21.13
2018-09-13T05:14:02.774Z,21.13
2018-09-13T05:15:02.889Z,21.13
2018-09-13T05:16:02.898Z,21.13
2018-09-13T05:17:02.671Z,21.13
2018-09-13T05:18:02.817Z,21.13
2018-09-13T05:19:02.731Z,21.13
2018-09-13T05:20:02.792Z,21.13
2018-09-13T05:21:02.515Z,21.13
2018-09-13T05:22:02.719Z,21.13
2018-09-13T05:23:02.439Z,21.13
2018-09-13T05:24:02.619Z,21.13
2018-09-13T05:25:02.763Z,21.13
2018-09-13T05:26:02.795Z,21.13
2018-09-13T05:27:03.074Z,21.13
2018-09-13T05:28:02.772Z,21.13
2018-09-13T05:29:02.787Z,21.13
2018-09-13T05:30:02.551Z,21.13
2018-09-13T05:31:02.809Z,21.13
2018-09-13T05:32:02.747Z,21.13
2018-09-13T05:33:02.555Z,21.13
2018-09-13T05:34:02.980Z,21.13
2018-09-13T05:35:02.856Z,21.13
2018-09-13T05:36:02.773Z,21.13
2018-09-13T05:37:02.910Z,21.13
2018-09-13T05:38:02.432Z,21.13
2018-09-13T05:39:03.130Z,21.13
2018-09-13T05:40:02.848Z,21.13
2018-09-13T05:41:02.498Z,21.13
2018-09-13T05:42:02.711Z,21.13
2018-09-13T05:43:02.783Z,21.13
2018-09-13T05:44:02.823Z,21.13
2018-09-13T05:45:02.628Z,21.13
2018-09-13T05:46:02.765Z,21.13
2018-09-13T05:47:02.844Z,21.13
2018-09-13T05:48:02.623Z,21.13
2018-09-13T05:49:02.785Z,21.13
2018-09-13T05:50:02.715Z,21.13
2018-09-13T05:51:02.969Z,21.13
2018-09-13T05:52:02.542Z,21.13
2018-09-13T05:53:02.610Z,21.13
2018-09-13T05:54:02.497Z,21.13
2018-09-13T05:55:02.569Z,21.13
2018-09-13T05:56:02.431Z,21.13
2018-09-13T05:57:02.683Z,21.13
2018-09-13T05:58:02.559Z,21.13
2018-09-13T05:59:02.643Z,21.13
2018-09-13T06:00:02.845Z,21.13
2018-09-13T06:01:03.200Z,21.13
2018-09-13T06:02:02.722Z,21.13
2018-09-13T06:03:02.423Z,21.13
2018-09-13T06:04:02.556Z,21.13
2018-09-13T06:05:02.506Z,21.13
2018-09-13T06:06:02.672Z,21.12
2018-09-13T06:07:02.525Z,21.13
2018-09-13T06:08:02.929Z,21.13
2018-09-13T06:09:02.465Z,21.13
2018-09-13T06:10:02.664Z,21.13
2018-09-13T06:11:02.476Z,21.12
2018-09-13T06:12:02.377Z,21.13
2018-09-13T06:13:02.761Z,21.13
2018-09-13T06:14:02.932Z,21.13
2018-09-13T06:15:03.000Z,21.12
2018-09-13T06:16:02.531Z,21.13
2018-09-13T06:17:02.524Z,21.13
2018-09-13T06:18:02.781Z,21.12
2018-09-13T06:19:02.842Z,21.13
2018-09-13T06:20:02.486Z,21.13
2018-09-13T06:21:02.715Z,21.12
2018-09-13T06:22:02.458Z,21.13
2018-09-13T06:23:02.475Z,21.13
2018-09-13T06:24:02.864Z,21.12
2018-09-13T06:25:02.833Z,21.12
2018-09-13T06:26:02.731Z,21.12
2018-09-13T06:27:02.708Z,21.12
2018-09-13T06:28:02.839Z,21.13
2018-09-13T06:29:02.569Z,21.12
2018-09-13T06:30:02.401Z,21.12
2018-09-13T06:31:02.515Z,21.12
2018-09-13T06:32:02.595Z,21.12
2018-09-13T06:33:02.887Z,21.12
2018-09-13T06:34:02.581Z,21.12
2018-09-13T06:35:02.731Z,21.13
2018-09-13T06:36:02.887Z,21.12
2018-09-13T06:37:02.523Z,21.12
2018-09-13T06:38:02.764Z,21.12
2018-09-13T06:39:02.588Z,21.12
2018-09-13T06:40:02.651Z,21.12
2018-09-13T06:41:02.638Z,21.12
2018-09-13T06:42:02.742Z,21.12
2018-09-13T06:43:02.887Z,21.12
2018-09-13T06:44:02.704Z,21.12
2018-09-13T06:45:02.656Z,21.12
2018-09-13T06:46:02.619Z,21.12
2018-09-13T06:47:02.895Z,21.12
2018-09-13T06:48:03.137Z,21.12
2018-09-13T06:49:02.792Z,21.12
2018-09-13T06:50:02.492Z,21.12
2018-09-13T06:51:02.535Z,21.11
2018-09-13T06:52:02.601Z,21.12
2018-09-13T06:53:02.611Z,21.12
2018-09-13T06:54:02.901Z,21.12
2018-09-13T06:55:02.741Z,21.12
2018-09-13T06:56:02.783Z,21.12
2018-09-13T06:57:02.824Z,21.11
2018-09-13T06:58:02.906Z,21.12
2018-09-13T06:59:02.415Z,21.11
2018-09-13T07:00:02.507Z,21.12
2018-09-13T07:01:02.688Z,21.12
2018-09-13T07:02:02.596Z,21.12
2018-09-13T07:03:02.678Z,21.11
2018-09-13T07:04:02.636Z,21.12
2018-09-13T07:05:02.642Z,21.11
2018-09-13T07:06:02.576Z,21.11
2018-09-13T07:07:02.788Z,21.11
2018-09-13T07:08:02.569Z,21.12
2018-09-13T07:09:03.301Z,21.11
2018-09-13T07:10:02.624Z,21.11
2018-09-13T07:11:02.845Z,21.11
2018-09-13T07:12:02.545Z,21.11
2018-09-13T07:13:02.430Z,21.11
2018-09-13T07:14:02.853Z,21.11
2018-09-13T07:15:02.492Z,21.11
2018-09-13T07:16:02.389Z,21.11
2018-09-13T07:17:02.449Z,21.11
2018-09-13T07:18:02.548Z,21.11
2018-09-13T07:19:02.370Z,21.11
2018-09-13T07:20:02.644Z,21.11
2018-09-13T07:21:02.599Z,21.11
2018-09-13T07:22:02.676Z,21.11
2018-09-13T07:23:02.386Z,21.11
2018-09-13T07:24:02.645Z,21.11
2018-09-13T07:25:02.570Z,21.11
2018-09-13T07:26:02.642Z,21.11
2018-09-13T07:27:02.636Z,21.11
2018-09-13T07:28:02.544Z,21.11
2018-09-13T07:29:02.753Z,21.11
2018-09-13T07:30:02.526Z,21.11
2018-09-13T07:31:03.250Z,21.11
2018-09-13T07:32:02.475Z,21.1
2018-09-13T07:33:02.512Z,21.1
2018-09-13T07:34:02.529Z,21.11
2018-09-13T07:35:02.785Z,21.11
2018-09-13T07:36:02.588Z,21.11
2018-09-13T07:37:02.655Z,21.11
2018-09-13T07:38:02.460Z,21.11
2018-09-13T07:39:02.464Z,21.11
2018-09-13T07:40:02.923Z,21.11
2018-09-13T07:41:02.854Z,21.11
2018-09-13T07:42:02.615Z,21.1
2018-09-13T07:43:02.850Z,21.11
2018-09-13T07:44:02.494Z,21.11
2018-09-13T07:45:02.661Z,21.1
2018-09-13T07:46:02.798Z,21.11
2018-09-13T07:47:02.478Z,21.09
2018-09-13T07:48:02.540Z,21.03
2018-09-13T07:49:03.296Z,21.02
2018-09-13T07:50:02.669Z,21.01
2018-09-13T07:51:02.868Z,20.93
2018-09-13T07:52:02.775Z,20.95
2018-09-13T07:53:02.634Z,20.92
2018-09-13T07:54:02.386Z,20.92
2018-09-13T07:55:02.817Z,20.91
2018-09-13T07:56:02.685Z,20.88
2018-09-13T07:57:03.427Z,20.87
2018-09-13T07:58:02.593Z,20.83
2018-09-13T07:59:02.571Z,20.83
2018-09-13T08:00:02.483Z,20.81
2018-09-13T08:01:02.775Z,20.83
2018-09-13T08:02:02.463Z,20.84
2018-09-13T08:03:02.478Z,20.88
2018-09-13T08:04:02.627Z,20.91
2018-09-13T08:05:03.218Z,20.95
2018-09-13T08:06:03.197Z,20.96
2018-09-13T08:07:02.940Z,20.99
2018-09-13T08:08:02.555Z,20.98
2018-09-13T08:09:02.475Z,20.99
2018-09-13T08:10:02.599Z,21
2018-09-13T08:11:02.601Z,21.01
2018-09-13T08:12:03.505Z,21.03
2018-09-13T08:13:02.742Z,21.06
2018-09-13T08:14:02.550Z,21.07
2018-09-13T08:15:03.186Z,21.07
2018-09-13T08:16:02.804Z,21.1
2018-09-13T08:17:02.642Z,21.1
2018-09-13T08:18:02.360Z,21.09
2018-09-13T08:19:02.636Z,21.1
2018-09-13T08:20:02.551Z,21.1
2018-09-13T08:21:02.966Z,21.1
2018-09-13T08:22:03.807Z,21.12
2018-09-13T08:23:03.020Z,21.13
2018-09-13T08:24:02.818Z,21.1
2018-09-13T08:25:02.386Z,21.08
2018-09-13T08:26:02.385Z,21.11
2018-09-13T08:27:03.055Z,21.13
2018-09-13T08:28:02.443Z,21.13
2018-09-13T08:29:02.750Z,21.15
2018-09-13T08:30:02.497Z,21.17
2018-09-13T08:31:02.790Z,21.18
2018-09-13T08:32:02.827Z,21.19
2018-09-13T08:33:02.790Z,21.19
2018-09-13T08:34:02.812Z,21.21
2018-09-13T08:35:03.768Z,21.23
2018-09-13T08:36:02.620Z,21.24
2018-09-13T08:37:03.159Z,21.25
2018-09-13T08:38:02.395Z,21.25
2018-09-13T08:39:02.373Z,21.26
2018-09-13T08:40:02.929Z,21.26
2018-09-13T08:41:02.496Z,21.28
2018-09-13T08:42:02.664Z,21.28
2018-09-13T08:43:03.026Z,21.29
2018-09-13T08:44:02.614Z,21.3
2018-09-13T08:45:02.592Z,21.3
2018-09-13T08:46:02.735Z,21.31
2018-09-13T08:47:02.639Z,21.31
2018-09-13T08:48:02.485Z,21.33
2018-09-13T08:49:02.423Z,21.34
2018-09-13T08:50:02.238Z,21.35
2018-09-13T08:51:02.470Z,21.33
2018-09-13T08:52:03.149Z,21.34
2018-09-13T08:53:02.438Z,21.33
2018-09-13T08:54:03.027Z,21.35
2018-09-13T08:55:02.963Z,21.36
2018-09-13T08:56:02.834Z,21.33
2018-09-13T08:57:02.691Z,21.3
2018-09-13T08:58:02.644Z,21.28
2018-09-13T08:59:02.529Z,21.27
2018-09-13T09:00:02.451Z,21.26
2018-09-13T09:01:02.876Z,21.26
2018-09-13T09:02:02.775Z,21.25
2018-09-13T09:03:02.849Z,21.24
2018-09-13T09:04:02.588Z,21.24
2018-09-13T09:05:02.516Z,21.24
2018-09-13T09:06:02.846Z,21.23
2018-09-13T09:07:02.661Z,21.23
2018-09-13T09:08:02.512Z,21.22
2018-09-13T09:09:02.598Z,21.21
2018-09-13T09:10:02.863Z,21.21
2018-09-13T09:11:02.919Z,21.21
2018-09-13T09:12:03.364Z,21.2
2018-09-13T09:13:02.437Z,21.2
2018-09-13T09:14:03.012Z,21.2
2018-09-13T09:15:02.594Z,21.19
2018-09-13T09:16:02.805Z,21.19
2018-09-13T09:17:02.723Z,21.19
2018-09-13T09:18:02.771Z,21.18
2018-09-13T09:19:03.168Z,21.18
2018-09-13T09:20:02.826Z,21.18
2018-09-13T09:21:02.498Z,21.18
2018-09-13T09:22:02.413Z,21.18
2018-09-13T09:23:02.696Z,21.18
2018-09-13T09:24:03.020Z,21.18
2018-09-13T09:25:02.790Z,21.18
2018-09-13T09:26:02.910Z,21.17
2018-09-13T09:27:02.617Z,21.17
2018-09-13T09:28:02.572Z,21.17
2018-09-13T09:29:03.152Z,21.17
2018-09-13T09:30:02.532Z,21.16
2018-09-13T09:31:02.710Z,21.15
2018-09-13T09:32:02.389Z,21.15
2018-09-13T09:33:02.746Z,21.16
2018-09-13T09:34:02.741Z,21.16
2018-09-13T09:35:02.970Z,21.15
2018-09-13T09:36:02.712Z,21.16
2018-09-13T09:37:02.490Z,21.16
2018-09-13T09:38:02.711Z,21.15
2018-09-13T09:39:02.629Z,21.14
2018-09-13T09:40:02.536Z,21.14
2018-09-13T09:41:02.480Z,21.13
2018-09-13T09:42:02.399Z,21.14
2018-09-13T09:43:02.563Z,21.13
2018-09-13T09:44:03.102Z,21.13
2018-09-13T09:45:03.756Z,21.13
2018-09-13T09:46:02.824Z,21.13
2018-09-13T09:47:02.837Z,21.13
2018-09-13T09:48:03.013Z,21.13
2018-09-13T09:49:02.672Z,21.13
2018-09-13T09:50:02.663Z,21.13
2018-09-13T09:51:02.543Z,21.13
2018-09-13T09:52:03.162Z,21.13
2018-09-13T09:53:02.760Z,21.13
2018-09-13T09:54:02.766Z,21.13
2018-09-13T09:55:02.557Z,21.13
2018-09-13T09:56:03.096Z,21.13
2018-09-13T09:57:02.468Z,21.13
2018-09-13T09:58:03.892Z,21.13
2018-09-13T09:59:02.535Z,21.13
2018-09-13T10:00:02.437Z,21.13
2018-09-13T10:01:02.842Z,21.13
2018-09-13T10:02:02.507Z,21.13
2018-09-13T10:03:03.112Z,21.13
2018-09-13T10:04:02.453Z,21.13
2018-09-13T10:05:02.521Z,21.13
2018-09-13T10:06:02.357Z,21.13
2018-09-13T10:07:02.406Z,21.13
2018-09-13T10:08:02.458Z,21.13
2018-09-13T10:09:03.003Z,21.13
2018-09-13T10:10:02.638Z,21.13
2018-09-13T10:11:02.399Z,21.13
2018-09-13T10:12:02.851Z,21.13
2018-09-13T10:13:02.370Z,21.12
2018-09-13T10:14:02.565Z,21.13
2018-09-13T10:15:02.725Z,21.13
2018-09-13T10:16:02.800Z,21.13
2018-09-13T10:17:02.582Z,21.13
2018-09-13T10:18:02.562Z,21.13
2018-09-13T10:19:02.446Z,21.13
2018-09-13T10:20:02.850Z,21.13
2018-09-13T10:21:02.502Z,21.13
2018-09-13T10:22:02.503Z,21.13
2018-09-13T10:23:03.566Z,21.13
2018-09-13T10:24:02.681Z,21.13
2018-09-13T10:25:02.683Z,21.13
2018-09-13T10:26:02.314Z,21.13
2018-09-13T10:27:03.518Z,21.13
2018-09-13T10:28:02.733Z,21.13
2018-09-13T10:29:02.508Z,21.13
2018-09-13T10:30:02.351Z,21.13
2018-09-13T10:31:02.768Z,21.13
2018-09-13T10:32:02.843Z,21.13
2018-09-13T10:33:03.162Z,21.13
2018-09-13T10:34:02.651Z,21.13
2018-09-13T10:35:02.601Z,21.13
2018-09-13T10:36:02.540Z,21.13
2018-09-13T10:37:02.749Z,21.13
2018-09-13T10:38:02.504Z,21.13
2018-09-13T10:39:02.583Z,21.13
2018-09-13T10:40:02.801Z,21.13
2018-09-13T10:41:02.584Z,21.13
2018-09-13T10:42:02.917Z,21.13
2018-09-13T10:43:02.962Z,21.13
2018-09-13T10:44:02.805Z,21.13
2018-09-13T10:45:02.518Z,21.13
2018-09-13T10:46:02.881Z,21.13
2018-09-13T10:47:02.818Z,21.13
2018-09-13T10:48:03.253Z,21.13
2018-09-13T10:49:02.861Z,21.13
2018-09-13T10:50:02.549Z,21.13
2018-09-13T10:51:03.027Z,21.13
2018-09-13T10:52:02.458Z,21.14
2018-09-13T10:53:02.643Z,21.13
2018-09-13T10:54:02.647Z,21.14
2018-09-13T10:55:02.677Z,21.14
2018-09-13T10:56:02.891Z,21.13
2018-09-13T10:57:02.625Z,21.14
2018-09-13T10:58:02.685Z,21.14
2018-09-13T10:59:03.027Z,21.14
2018-09-13T11:00:02.468Z,21.14
2018-09-13T11:01:02.652Z,21.14
2018-09-13T11:02:02.619Z,21.13
2018-09-13T11:03:02.523Z,21.14
2018-09-13T11:04:03.249Z,21.14
2018-09-13T11:05:02.523Z,21.14
2018-09-13T11:06:02.462Z,21.14
2018-09-13T11:07:02.518Z,21.14
2018-09-13T11:08:02.391Z,21.14
2018-09-13T11:09:02.498Z,21.15
2018-09-13T11:10:02.397Z,21.15
2018-09-13T11:11:04.552Z,21.14
2018-09-13T11:12:02.835Z,21.14
2018-09-13T11:13:02.778Z,21.14
2018-09-13T11:14:03.023Z,21.15
2018-09-13T11:15:02.676Z,21.14
2018-09-13T11:16:02.470Z,21.15
2018-09-13T11:17:02.375Z,21.15
2018-09-13T11:18:02.456Z,21.14
2018-09-13T11:19:02.483Z,21.15
2018-09-13T11:20:02.734Z,21.15
2018-09-13T11:21:02.555Z,21.15
2018-09-13T11:22:02.982Z,21.15
2018-09-13T11:23:02.467Z,21.15
2018-09-13T11:24:02.668Z,21.15
2018-09-13T11:25:02.435Z,21.15
2018-09-13T11:26:02.429Z,21.15
2018-09-13T11:27:02.518Z,21.15
2018-09-13T11:28:02.457Z,21.15
2018-09-13T11:29:02.501Z,21.15
2018-09-13T11:30:02.470Z,21.15
2018-09-13T11:31:02.515Z,21.15
2018-09-13T11:32:02.381Z,21.15
2018-09-13T11:33:02.349Z,21.15
2018-09-13T11:34:02.498Z,21.15
2018-09-13T11:35:02.562Z,21.15
2018-09-13T11:36:02.608Z,21.15
2018-09-13T11:37:02.558Z,21.15
2018-09-13T11:38:02.540Z,21.15
2018-09-13T11:39:02.452Z,21.15
2018-09-13T11:40:03.128Z,21.13
2018-09-13T11:41:03.953Z,21.15
2018-09-13T11:42:02.473Z,21.14
2018-09-13T11:43:02.413Z,21.14
2018-09-13T11:44:02.640Z,21.13
2018-09-13T11:45:02.569Z,21.13
2018-09-13T11:46:02.505Z,21.14
2018-09-13T11:47:02.898Z,21.14
2018-09-13T11:48:02.969Z,21.14
2018-09-13T11:49:02.438Z,21.14
2018-09-13T11:50:02.529Z,21.14
2018-09-13T11:51:02.334Z,21.14
2018-09-13T11:52:02.492Z,21.14
2018-09-13T11:53:02.566Z,21.14
2018-09-13T11:54:03.068Z,21.15
2018-09-13T11:55:02.563Z,21.14
2018-09-13T11:56:02.825Z,21.14
2018-09-13T11:57:02.558Z,21.14
2018-09-13T11:58:02.754Z,21.15
2018-09-13T11:59:02.400Z,21.15
2018-09-13T12:00:02.413Z,21.14
2018-09-13T12:01:02.809Z,21.15
2018-09-13T12:02:03.241Z,21.15
2018-09-13T12:03:02.524Z,21.15
2018-09-13T12:04:02.547Z,21.14
2018-09-13T12:05:02.687Z,21.14
2018-09-13T12:06:02.659Z,21.14
2018-09-13T12:07:02.485Z,21.15
2018-09-13T12:08:02.570Z,21.15
2018-09-13T12:09:02.782Z,21.15
2018-09-13T12:10:02.545Z,21.15
2018-09-13T12:11:02.745Z,21.15
2018-09-13T12:12:02.595Z,21.14
2018-09-13T12:13:02.629Z,21.15
2018-09-13T12:14:02.589Z,21.15
2018-09-13T12:15:03.807Z,21.14
2018-09-13T12:16:02.486Z,21.15
2018-09-13T12:17:02.534Z,21.14
2018-09-13T12:18:03.725Z,21.14
2018-09-13T12:19:02.492Z,21.15
2018-09-13T12:20:02.785Z,21.14
2018-09-13T12:21:03.166Z,21.14
2018-09-13T12:22:02.445Z,21.14
2018-09-13T12:23:02.561Z,21.14
2018-09-13T12:24:02.466Z,21.14
2018-09-13T12:25:02.527Z,21.14
2018-09-13T12:26:02.648Z,21.14
2018-09-13T12:27:02.696Z,21.14
2018-09-13T12:28:02.360Z,21.14
2018-09-13T12:29:02.561Z,21.14
2018-09-13T12:30:02.618Z,21.13
2018-09-13T12:31:02.534Z,21.14
2018-09-13T12:32:02.312Z,21.14
2018-09-13T12:33:03.001Z,21.14
2018-09-13T12:34:02.771Z,21.14
2018-09-13T12:35:02.551Z,21.14
2018-09-13T12:36:02.312Z,21.14
2018-09-13T12:37:02.644Z,21.14
2018-09-13T12:38:02.403Z,21.14
2018-09-13T12:39:02.392Z,21.13
2018-09-13T12:40:02.587Z,21.14
2018-09-13T12:41:02.518Z,21.14
2018-09-13T12:42:02.437Z,21.13
2018-09-13T12:43:02.844Z,21.14
2018-09-13T12:44:02.410Z,21.14
2018-09-13T12:45:02.903Z,21.13
2018-09-13T12:46:02.859Z,21.13
2018-09-13T12:47:03.751Z,21.13
2018-09-13T12:48:02.467Z,21.13
2018-09-13T12:49:02.846Z,21.13
2018-09-13T12:50:03.209Z,21.14
2018-09-13T12:51:02.845Z,21.13
2018-09-13T12:52:02.561Z,21.13
2018-09-13T12:53:02.564Z,21.14